createdAt,value
2018-02-10T00:02:22.678Z,0.30
2018-02-10T00:04:50.350Z,0.20
2018-02-10T00:07:18.878Z,0.30
2018-02-10T00:09:46.656Z,0.20
2018-02-10T00:12:15.075Z,0.30
2018-02-10T00:14:43.536Z,0.30
2018-02-10T00:17:11.308Z,0.30
2018-02-10T00:19:38.985Z,0.30
2018-02-10T00:22:06.965Z,0.40
2018-02-10T00:24:36.337Z,0.40
2018-02-10T00:27:04.025Z,0.40
2018-02-10T00:29:31.990Z,0.40
2018-02-10T00:31:59.641Z,0.40
2018-02-10T00:34:27.325Z,0.40
2018-02-10T00:36:55.045Z,0.40
2018-02-10T00:39:22.731Z,0.40
2018-02-10T00:41:50.508Z,0.40
2018-02-10T00:44:19.442Z,0.30
2018-02-10T00:46:47.974Z,0.40
2018-02-10T00:49:15.670Z,0.40
2018-02-10T00:51:44.141Z,0.30
2018-02-10T00:54:11.839Z,0.30
2018-02-10T00:56:40.293Z,0.30
2018-02-10T00:59:09.460Z,0.20
2018-02-10T01:01:37.317Z,0.20
2018-02-10T01:04:05.838Z,0.30
2018-02-10T01:06:34.485Z,0.40
2018-02-10T01:09:02.193Z,0.30
2018-02-10T01:11:30.630Z,0.30
2018-02-10T01:13:59.797Z,0.30
2018-02-10T01:16:27.564Z,0.30
2018-02-10T01:18:55.844Z,0.40
2018-02-10T01:21:24.290Z,0.40
2018-02-10T01:23:52.849Z,0.30
2018-02-10T01:26:20.505Z,0.30
2018-02-10T01:28:48.244Z,0.30
2018-02-10T01:31:16.650Z,0.20
2018-02-10T01:33:45.204Z,0.30
2018-02-10T01:36:13.076Z,0.30
2018-02-10T01:38:41.066Z,0.30
2018-02-10T01:41:08.721Z,0.30
2018-02-10T01:43:36.622Z,0.30
2018-02-10T01:46:06.059Z,0.40
2018-02-10T01:48:33.935Z,0.40
2018-02-10T01:51:01.934Z,0.50
2018-02-10T01:53:29.585Z,0.50
2018-02-10T01:55:57.544Z,0.60
2018-02-10T01:58:25.809Z,0.60
2018-02-10T02:00:54.201Z,0.60
2018-02-10T02:03:22.916Z,0.50
2018-02-10T02:05:51.592Z,0.50
2018-02-10T02:08:19.421Z,0.50
2018-02-10T02:10:47.222Z,0.50
2018-02-10T02:13:15.724Z,0.50
2018-02-10T02:15:43.527Z,0.50
2018-02-10T02:18:11.241Z,0.50
2018-02-10T02:20:39.776Z,0.40
2018-02-10T02:23:07.649Z,0.40
2018-02-10T02:25:36.327Z,0.40
2018-02-10T02:28:04.193Z,0.40
2018-02-10T02:30:32.061Z,0.40
2018-02-10T02:32:59.933Z,0.40
2018-02-10T02:35:28.645Z,0.40
2018-02-10T02:37:57.297Z,0.40
2018-02-10T02:40:24.990Z,0.40
2018-02-10T02:42:52.829Z,0.30
2018-02-10T02:45:21.329Z,0.30
2018-02-10T02:47:49.001Z,0.30
2018-02-10T02:50:17.661Z,0.30
2018-02-10T02:52:46.952Z,0.30
2018-02-10T02:55:14.640Z,0.30
2018-02-10T02:57:42.470Z,0.40
2018-02-10T03:00:11.256Z,0.40
2018-02-10T03:02:39.659Z,0.40
2018-02-10T03:05:08.320Z,0.40
2018-02-10T03:07:36.084Z,0.30
2018-02-10T03:10:03.954Z,0.20
2018-02-10T03:12:31.782Z,0.20
2018-02-10T03:14:59.578Z,0.20
2018-02-10T03:17:27.273Z,0.20
2018-02-10T03:19:55.625Z,0.20
2018-02-10T03:22:23.303Z,0.20
2018-02-10T03:24:51.143Z,0.10
2018-02-10T03:27:18.840Z,0.20
2018-02-10T03:29:47.391Z,0.10
2018-02-10T03:32:16.380Z,0.10
2018-02-10T03:34:44.843Z,0.20
2018-02-10T03:37:12.850Z,0.20
2018-02-10T03:39:40.595Z,0.20
2018-02-10T03:42:08.457Z,0.20
2018-02-10T03:44:36.102Z,0.20
2018-02-10T03:47:03.884Z,0.10
2018-02-10T03:49:31.747Z,0.00
2018-02-10T03:51:59.390Z,0.00
2018-02-10T03:54:27.298Z,0.10
2018-02-10T03:56:55.140Z,0.10
2018-02-10T03:59:22.777Z,0.10
2018-02-10T04:01:50.568Z,0.10
2018-02-10T04:04:18.429Z,0.10
2018-02-10T04:06:46.140Z,0.10
2018-02-10T04:09:14.673Z,0.00
2018-02-10T04:11:42.435Z,0.00
2018-02-10T04:14:10.251Z,0.10
2018-02-10T04:16:38.733Z,0.00
2018-02-10T04:19:07.992Z,0.00
2018-02-10T04:21:35.743Z,0.00
2018-02-10T04:24:04.222Z,0.00
2018-02-10T04:26:31.945Z,0.00
2018-02-10T04:29:00.366Z,0.00
2018-02-10T04:31:28.128Z,0.00
2018-02-10T04:33:56.499Z,0.00
2018-02-10T04:36:24.748Z,0.00
2018-02-10T04:38:53.168Z,0.00
2018-02-10T04:41:21.024Z,0.00
2018-02-10T04:43:49.606Z,-0.10
2018-02-10T04:46:17.337Z,-0.10
2018-02-10T04:48:45.063Z,-0.10
2018-02-10T04:51:13.002Z,-0.10
2018-02-10T04:53:40.968Z,-0.10
2018-02-10T04:56:08.860Z,-0.10
2018-02-10T04:58:38.235Z,-0.10
2018-02-10T05:01:05.940Z,-0.10
2018-02-10T05:03:34.377Z,0.00
2018-02-10T05:06:02.169Z,0.00
2018-02-10T05:08:30.008Z,0.00
2018-02-10T05:10:58.209Z,0.00
2018-02-10T05:13:27.073Z,-0.10
2018-02-10T05:15:54.868Z,-0.10
2018-02-10T05:18:22.594Z,-0.10
2018-02-10T05:20:52.337Z,-0.10
2018-02-10T05:23:20.129Z,-0.10
2018-02-10T05:25:47.865Z,-0.10
2018-02-10T05:28:15.697Z,-0.10
2018-02-10T05:30:44.279Z,-0.10
2018-02-10T05:33:12.043Z,0.00
2018-02-10T05:35:39.725Z,-0.10
2018-02-10T05:38:08.346Z,-0.10
2018-02-10T05:40:36.083Z,-0.20
2018-02-10T05:43:03.918Z,-0.10
2018-02-10T05:45:32.174Z,-0.20
2018-02-10T05:48:00.455Z,-0.20
2018-02-10T05:50:28.232Z,-0.20
2018-02-10T05:52:56.047Z,-0.20
2018-02-10T05:55:24.504Z,-0.20
2018-02-10T05:57:52.156Z,-0.20
2018-02-10T06:00:20.986Z,-0.10
2018-02-10T06:02:48.787Z,-0.10
2018-02-10T06:05:17.113Z,0.00
2018-02-10T06:07:46.469Z,0.00
2018-02-10T06:10:14.233Z,0.00
2018-02-10T06:12:42.007Z,0.00
2018-02-10T06:15:09.698Z,0.00
2018-02-10T06:17:38.116Z,-0.10
2018-02-10T06:20:06.617Z,-0.10
2018-02-10T06:22:35.135Z,-0.10
2018-02-10T06:25:04.745Z,-0.10
2018-02-10T06:27:33.774Z,0.00
2018-02-10T06:30:01.774Z,-0.10
2018-02-10T06:32:29.555Z,0.00
2018-02-10T06:34:57.912Z,0.00
2018-02-10T06:37:25.673Z,0.00
2018-02-10T06:39:53.328Z,0.00
2018-02-10T06:42:21.202Z,0.10
2018-02-10T06:44:49.081Z,0.10
2018-02-10T06:47:16.970Z,0.10
2018-02-10T06:49:46.534Z,0.20
2018-02-10T06:52:14.400Z,0.20
2018-02-10T06:54:42.162Z,0.20
2018-02-10T06:57:10.128Z,0.20
2018-02-10T06:59:37.891Z,0.20
2018-02-10T07:02:06.023Z,0.30
2018-02-10T07:04:33.697Z,0.30
2018-02-10T07:07:02.027Z,0.30
2018-02-10T07:09:30.278Z,0.30
2018-02-10T07:11:58.040Z,0.40
2018-02-10T07:14:25.833Z,0.40
2018-02-10T07:16:53.671Z,0.50
2018-02-10T07:19:21.389Z,0.50
2018-02-10T07:21:49.811Z,0.50
2018-02-10T07:24:18.091Z,0.50
2018-02-10T07:26:45.761Z,0.60
2018-02-10T07:29:13.507Z,0.60
2018-02-10T07:31:42.099Z,0.60
2018-02-10T07:34:09.968Z,0.60
2018-02-10T07:36:40.571Z,0.60
2018-02-10T07:39:08.290Z,0.60
2018-02-10T07:41:36.834Z,0.70
2018-02-10T07:44:04.532Z,0.70
2018-02-10T07:46:33.076Z,0.70
2018-02-10T07:49:00.884Z,0.70
2018-02-10T07:51:29.886Z,0.80
2018-02-10T07:53:58.359Z,0.80
2018-02-10T07:56:26.998Z,0.70
2018-02-10T07:58:54.866Z,0.70
2018-02-10T08:01:23.185Z,0.80
2018-02-10T08:03:51.649Z,0.90
2018-02-10T08:06:19.309Z,0.90
2018-02-10T08:08:47.043Z,0.90
2018-02-10T08:11:14.884Z,1.00
2018-02-10T08:13:42.549Z,0.90
2018-02-10T08:16:10.647Z,1.00
2018-02-10T08:18:38.526Z,1.00
2018-02-10T08:21:06.304Z,1.00
2018-02-10T08:23:34.829Z,1.00
2018-02-10T08:26:02.583Z,0.90
2018-02-10T08:28:30.341Z,1.00
2018-02-10T08:30:58.143Z,0.90
2018-02-10T08:33:25.818Z,1.00
2018-02-10T08:35:53.492Z,1.00
2018-02-10T08:38:21.329Z,1.00
2018-02-10T08:40:49.255Z,1.00
2018-02-10T08:43:16.919Z,1.10
2018-02-10T08:45:44.721Z,1.10
2018-02-10T08:48:12.689Z,1.10
2018-02-10T08:50:41.839Z,1.10
2018-02-10T08:53:09.580Z,1.10
2018-02-10T08:55:38.058Z,1.10
2018-02-10T08:58:05.906Z,1.10
2018-02-10T09:00:33.609Z,1.10
2018-02-10T09:03:01.307Z,1.20
2018-02-10T09:05:30.104Z,1.20
2018-02-10T09:07:58.585Z,1.20
2018-02-10T09:10:26.978Z,1.30
2018-02-10T09:12:55.363Z,1.30
2018-02-10T09:15:23.047Z,1.30
2018-02-10T09:17:51.622Z,1.40
2018-02-10T09:20:20.176Z,1.50
2018-02-10T09:22:47.931Z,1.50
2018-02-10T09:25:15.739Z,1.60
2018-02-10T09:27:44.886Z,1.80
2018-02-10T09:30:12.656Z,1.70
2018-02-10T09:32:40.532Z,1.80
2018-02-10T09:35:08.285Z,1.90
2018-02-10T09:37:36.150Z,2.00
2018-02-10T09:40:04.701Z,2.00
2018-02-10T09:42:32.393Z,2.00
2018-02-10T09:45:00.158Z,2.00
2018-02-10T09:47:28.169Z,2.10
2018-02-10T09:49:56.584Z,2.30
2018-02-10T09:52:24.267Z,2.30
2018-02-10T09:54:52.141Z,2.40
2018-02-10T09:57:19.928Z,2.40
2018-02-10T09:59:47.763Z,2.60
2018-02-10T10:02:15.445Z,2.70
2018-02-10T10:04:43.495Z,2.70
2018-02-10T10:07:12.319Z,2.70
2018-02-10T10:09:40.973Z,2.80
2018-02-10T10:12:08.741Z,2.80
2018-02-10T10:14:36.604Z,3.00
2018-02-10T10:17:05.115Z,3.10
2018-02-10T10:19:33.523Z,3.20
2018-02-10T10:22:02.260Z,3.30
2018-02-10T10:24:30.678Z,3.40
2018-02-10T10:26:58.493Z,3.50
2018-02-10T10:29:26.368Z,3.60
2018-02-10T10:31:54.845Z,3.70
2018-02-10T10:34:22.717Z,3.70
2018-02-10T10:36:53.503Z,3.70
2018-02-10T10:39:21.222Z,3.70
2018-02-10T10:41:49.138Z,3.70
2018-02-10T10:44:18.830Z,3.80
2018-02-10T10:46:46.486Z,3.90
2018-02-10T10:49:14.291Z,3.90
2018-02-10T10:51:42.055Z,3.90
2018-02-10T10:54:10.261Z,4.00
2018-02-10T10:56:38.102Z,3.90
2018-02-10T10:59:05.809Z,3.70
2018-02-10T11:01:35.095Z,3.50
2018-02-10T11:04:03.535Z,3.60
2018-02-10T11:06:31.558Z,3.60
2018-02-10T11:09:00.609Z,3.40
2018-02-10T11:11:28.848Z,3.40
2018-02-10T11:13:57.215Z,3.40
2018-02-10T11:16:24.852Z,3.40
2018-02-10T11:18:53.340Z,3.30
2018-02-10T11:21:23.357Z,3.30
2018-02-10T11:23:52.396Z,3.30
2018-02-10T11:26:20.264Z,3.30
2018-02-10T11:28:48.305Z,3.20
2018-02-10T11:31:16.136Z,3.20
2018-02-10T11:33:44.578Z,3.00
2018-02-10T11:36:12.368Z,3.00
2018-02-10T11:38:40.086Z,3.10
2018-02-10T11:41:08.484Z,3.20
2018-02-10T11:43:36.247Z,3.20
2018-02-10T11:46:04.112Z,3.30
2018-02-10T11:48:32.011Z,3.50
2018-02-10T11:51:00.456Z,3.80
2018-02-10T11:53:28.183Z,3.80
2018-02-10T11:55:56.004Z,3.90
2018-02-10T11:58:23.759Z,3.80
2018-02-10T12:00:51.553Z,3.80
2018-02-10T12:03:20.049Z,3.90
2018-02-10T12:05:48.786Z,3.90
2018-02-10T12:08:16.671Z,3.90
2018-02-10T12:10:45.174Z,3.90
2018-02-10T12:13:13.632Z,4.30
2018-02-10T12:15:41.301Z,4.30
2018-02-10T12:18:09.763Z,4.20
2018-02-10T12:20:38.379Z,4.30
2018-02-10T12:23:07.422Z,4.20
2018-02-10T12:25:35.149Z,4.20
2018-02-10T12:28:04.193Z,4.00
2018-02-10T12:30:32.117Z,4.00
2018-02-10T12:32:59.792Z,3.80
2018-02-10T12:35:27.455Z,3.80
2018-02-10T12:37:55.362Z,3.80
2018-02-10T12:40:23.985Z,3.80
2018-02-10T12:42:51.864Z,3.80
2018-02-10T12:45:19.567Z,3.70
2018-02-10T12:50:53.471Z,3.90
2018-02-10T12:53:22.055Z,3.90
2018-02-10T12:55:50.693Z,4.00
2018-02-10T12:58:19.628Z,4.20
2018-02-10T13:00:47.290Z,4.20
2018-02-10T13:03:15.053Z,4.10
2018-02-10T13:05:42.822Z,4.30
2018-02-10T13:08:10.926Z,4.50
2018-02-10T13:10:38.895Z,4.50
2018-02-10T13:13:07.544Z,4.60
2018-02-10T13:15:35.922Z,4.60
2018-02-10T13:18:03.786Z,4.60
2018-02-10T13:20:31.490Z,4.70
2018-02-10T13:23:00.677Z,4.70
2018-02-10T13:25:28.612Z,4.70
2018-02-10T13:27:56.376Z,4.70
2018-02-10T13:30:24.600Z,4.60
2018-02-10T13:32:53.606Z,5.30
2018-02-10T13:35:21.464Z,5.30
2018-02-10T13:37:50.125Z,5.10
2018-02-10T13:40:19.522Z,4.80
2018-02-10T13:42:47.361Z,4.70
2018-02-10T13:45:15.693Z,4.70
2018-02-10T13:47:43.779Z,4.70
2018-02-10T13:50:11.577Z,4.40
2018-02-10T13:52:39.362Z,4.20
2018-02-10T13:55:07.913Z,4.30
2018-02-10T13:57:36.496Z,4.30
2018-02-10T14:00:04.878Z,4.60
2018-02-10T14:02:32.662Z,4.60
2018-02-10T14:05:02.537Z,4.60
2018-02-10T14:07:30.318Z,4.60
2018-02-10T14:09:59.341Z,4.70
2018-02-10T14:12:27.993Z,4.80
2018-02-10T14:14:56.602Z,4.80
2018-02-10T14:17:24.378Z,4.70
2018-02-10T14:19:52.991Z,4.60
2018-02-10T14:24:55.820Z,4.40
2018-02-10T14:27:23.604Z,4.50
2018-02-10T14:29:52.740Z,4.40
2018-02-10T14:32:21.400Z,4.40
2018-02-10T14:34:50.447Z,4.40
2018-02-10T14:37:18.809Z,4.30
2018-02-10T14:39:46.471Z,4.20
2018-02-10T14:42:14.779Z,4.10
2018-02-10T14:44:42.556Z,4.00
2018-02-10T14:47:10.295Z,4.10
2018-02-10T14:49:38.576Z,3.90
2018-02-10T14:52:06.439Z,4.00
2018-02-10T14:54:35.534Z,4.00
2018-02-10T14:57:03.299Z,4.00
2018-02-10T14:59:31.443Z,3.90
2018-02-10T15:01:59.234Z,3.90
2018-02-10T15:04:27.257Z,3.90
2018-02-10T15:06:55.886Z,3.80
2018-02-10T15:09:23.665Z,3.70
2018-02-10T15:11:51.475Z,3.80
2018-02-10T15:14:19.233Z,3.90
2018-02-10T15:16:48.243Z,4.00
2018-02-10T15:19:16.994Z,4.00
2018-02-10T15:21:44.821Z,4.00
2018-02-10T15:24:12.688Z,3.90
2018-02-10T15:26:41.199Z,3.90
2018-02-10T15:29:08.961Z,3.90
2018-02-10T15:31:48.651Z,3.80
2018-02-10T15:34:28.421Z,3.90
2018-02-10T15:36:56.209Z,3.80
2018-02-10T15:39:26.095Z,3.80
2018-02-10T15:41:53.860Z,3.80
2018-02-10T15:44:21.584Z,3.80
2018-02-10T15:46:49.591Z,3.80
2018-02-10T15:49:17.493Z,3.80
2018-02-10T15:51:45.221Z,3.80
2018-02-10T15:54:12.993Z,3.60
2018-02-10T15:56:41.466Z,3.60
2018-02-10T15:59:09.842Z,3.70
2018-02-10T16:01:37.490Z,3.80
2018-02-10T16:04:05.714Z,3.80
2018-02-10T16:06:33.401Z,3.80
2018-02-10T16:09:01.438Z,3.80
2018-02-10T16:11:29.274Z,3.70
2018-02-10T16:13:57.039Z,3.70
2018-02-10T16:16:24.840Z,3.70
2018-02-10T16:18:53.308Z,3.60
2018-02-10T16:21:21.417Z,3.60
2018-02-10T16:23:49.822Z,3.70
2018-02-10T16:26:17.523Z,3.60
2018-02-10T16:28:47.401Z,3.60
2018-02-10T16:31:15.478Z,3.60
2018-02-10T16:33:43.249Z,3.70
2018-02-10T16:36:11.033Z,3.70
2018-02-10T16:38:38.745Z,3.80
2018-02-10T16:41:06.539Z,3.80
2018-02-10T16:43:34.320Z,3.80
2018-02-10T16:46:02.167Z,3.80
2018-02-10T16:48:30.577Z,3.80
2018-02-10T16:50:58.300Z,3.80
2018-02-10T16:53:25.968Z,3.80
2018-02-10T16:55:53.665Z,3.80
2018-02-10T16:58:22.152Z,3.90
2018-02-10T17:00:50.617Z,3.90
2018-02-10T17:03:18.558Z,3.90
2018-02-10T17:05:46.847Z,4.00
2018-02-10T17:08:14.849Z,4.00
2018-02-10T17:10:42.678Z,4.00
2018-02-10T17:13:10.381Z,3.90
2018-02-10T17:15:38.407Z,3.90
2018-02-10T17:18:06.081Z,3.80
2018-02-10T17:20:35.316Z,3.80
2018-02-10T17:23:03.140Z,3.80
2018-02-10T17:25:31.358Z,3.70
2018-02-10T17:27:59.215Z,3.70
2018-02-10T17:30:26.988Z,3.70
2018-02-10T17:32:55.399Z,3.70
2018-02-10T17:35:23.695Z,3.70
2018-02-10T17:37:52.018Z,3.70
2018-02-10T17:40:19.737Z,3.70
2018-02-10T17:42:47.537Z,3.70
2018-02-10T17:45:15.499Z,3.60
2018-02-10T17:47:43.161Z,3.60
2018-02-10T17:50:12.229Z,3.70
2018-02-10T17:52:41.636Z,3.60
2018-02-10T17:55:09.470Z,3.60
2018-02-10T17:57:37.202Z,3.60
2018-02-10T18:00:04.939Z,3.60
2018-02-10T18:02:33.233Z,3.60
2018-02-10T18:05:01.900Z,3.50
2018-02-10T18:07:30.890Z,3.60
2018-02-10T18:10:00.080Z,3.50
2018-02-10T18:12:28.546Z,3.50
2018-02-10T18:14:56.206Z,3.50
2018-02-10T18:17:25.611Z,3.40
2018-02-10T18:19:53.989Z,3.40
2018-02-10T18:22:21.831Z,3.40
2018-02-10T18:24:50.397Z,3.40
2018-02-10T18:27:18.206Z,3.50
2018-02-10T18:29:46.909Z,3.40
2018-02-10T18:32:16.219Z,3.40
2018-02-10T18:34:44.982Z,3.40
2018-02-10T18:37:13.242Z,3.40
2018-02-10T18:39:41.048Z,3.40
2018-02-10T18:42:08.839Z,3.40
2018-02-10T18:44:37.129Z,3.40
2018-02-10T18:47:05.308Z,3.30
2018-02-10T18:49:33.150Z,3.30
2018-02-10T18:52:01.031Z,3.30
2018-02-10T18:54:28.764Z,3.30
2018-02-10T18:56:56.717Z,3.30
2018-02-10T18:59:24.482Z,3.30
2018-02-10T19:01:52.298Z,3.30
2018-02-10T19:04:20.743Z,3.20
2018-02-10T19:06:48.532Z,3.30
2018-02-10T19:09:16.363Z,3.20
2018-02-10T19:11:44.126Z,3.30
2018-02-10T19:14:12.028Z,3.30
2018-02-10T19:16:40.281Z,3.30
2018-02-10T19:19:08.067Z,3.20
2018-02-10T19:21:36.139Z,3.20
2018-02-10T19:24:03.920Z,3.20
2018-02-10T19:26:31.617Z,3.20
2018-02-10T19:29:00.936Z,3.30
2018-02-10T19:31:28.936Z,3.30
2018-02-10T19:33:56.695Z,3.30
2018-02-10T19:36:24.457Z,3.30
2018-02-10T19:38:52.984Z,3.20
2018-02-10T19:41:21.437Z,3.20
2018-02-10T19:43:49.289Z,3.20
2018-02-10T19:46:17.965Z,3.20
2018-02-10T19:48:45.624Z,3.20
2018-02-10T19:51:13.395Z,3.20
2018-02-10T19:53:41.770Z,3.20
2018-02-10T19:56:09.469Z,3.20
2018-02-10T19:58:37.709Z,3.20
2018-02-10T20:01:06.721Z,3.20
2018-02-10T20:03:34.668Z,3.20
2018-02-10T20:06:02.948Z,3.20
2018-02-10T20:08:31.425Z,3.20
2018-02-10T20:10:59.334Z,3.10
2018-02-10T20:13:27.871Z,3.10
2018-02-10T20:15:57.230Z,3.10
2018-02-10T20:18:25.792Z,3.10
2018-02-10T20:20:55.262Z,3.00
2018-02-10T20:23:23.142Z,3.00
2018-02-10T20:25:51.132Z,3.00
2018-02-10T20:28:20.177Z,2.90
2018-02-10T20:30:48.119Z,2.90
2018-02-10T20:33:16.237Z,2.90
2018-02-10T20:35:45.330Z,3.00
2018-02-10T20:38:13.210Z,3.00
2018-02-10T20:40:40.891Z,3.00
2018-02-10T20:43:09.676Z,3.00
2018-02-10T20:45:38.849Z,2.90
2018-02-10T20:48:07.462Z,2.90
2018-02-10T20:50:36.930Z,3.00
2018-02-10T20:53:05.538Z,3.00
2018-02-10T20:55:34.029Z,3.00
2018-02-10T20:58:02.545Z,3.00
2018-02-10T21:00:30.902Z,3.00
2018-02-10T21:02:59.419Z,3.10
2018-02-10T21:05:27.439Z,3.10
2018-02-10T21:07:55.192Z,3.10
2018-02-10T21:10:23.837Z,3.20
2018-02-10T21:12:51.600Z,3.20
2018-02-10T21:15:19.467Z,3.30
2018-02-10T21:17:47.536Z,3.30
2018-02-10T21:20:15.300Z,3.20
2018-02-10T21:22:43.061Z,3.20
2018-02-10T21:25:10.827Z,3.30
2018-02-10T21:27:39.238Z,3.20
2018-02-10T21:30:07.025Z,3.30
2018-02-10T21:32:35.652Z,3.30
2018-02-10T21:35:03.419Z,3.20
2018-02-10T21:37:31.098Z,3.20
2018-02-10T21:39:59.658Z,3.20
2018-02-10T21:42:27.527Z,3.20
2018-02-10T21:44:55.391Z,3.30
2018-02-10T21:47:23.158Z,3.20
2018-02-10T21:49:52.150Z,3.20
2018-02-10T21:52:20.418Z,3.20
2018-02-10T21:54:48.506Z,3.30
2018-02-10T21:57:16.299Z,3.20
2018-02-10T21:59:44.124Z,3.20
2018-02-10T22:02:11.954Z,3.10
2018-02-10T22:04:39.748Z,3.00
2018-02-10T22:07:09.428Z,3.00
2018-02-10T22:09:37.216Z,3.00
2018-02-10T22:12:05.787Z,2.90
2018-02-10T22:17:28.567Z,2.90
2018-02-10T22:19:57.150Z,2.90
2018-02-10T22:22:35.410Z,3.00
2018-02-10T22:25:04.735Z,3.00
2018-02-10T22:27:40.152Z,3.00
2018-02-10T22:32:47.712Z,3.00
2018-02-10T22:35:17.087Z,3.00
2018-02-10T22:37:44.814Z,3.00
2018-02-10T22:40:12.950Z,3.10
2018-02-10T22:42:42.367Z,3.10
2018-02-10T22:45:10.667Z,3.10
2018-02-10T22:47:39.945Z,3.20
2018-02-10T22:50:10.897Z,3.10
2018-02-10T22:52:39.356Z,3.10
2018-02-10T22:55:07.386Z,3.10
2018-02-10T22:57:35.686Z,3.10
2018-02-10T23:00:03.573Z,3.10
2018-02-10T23:02:31.854Z,3.10
2018-02-10T23:05:01.442Z,3.00
2018-02-10T23:07:29.120Z,3.00
2018-02-10T23:09:56.962Z,3.00
2018-02-10T23:12:25.424Z,3.00
2018-02-10T23:14:53.677Z,3.00
2018-02-10T23:17:21.353Z,3.00
2018-02-10T23:19:49.142Z,3.00
2018-02-10T23:22:17.015Z,3.00
2018-02-10T23:24:45.490Z,3.10
2018-02-10T23:27:13.398Z,3.10
2018-02-10T23:29:41.941Z,3.00
2018-02-10T23:32:09.733Z,3.00
2018-02-10T23:34:39.203Z,3.00
2018-02-10T23:37:06.901Z,3.00
2018-02-10T23:39:35.554Z,3.10
2018-02-10T23:42:03.557Z,3.10
2018-02-10T23:44:32.005Z,3.00
2018-02-10T23:46:59.721Z,3.00
2018-02-10T23:49:27.459Z,3.00
2018-02-10T23:51:56.251Z,3.00
2018-02-10T23:54:24.090Z,3.00
2018-02-10T23:56:52.598Z,3.00
2018-02-10T23:59:21.264Z,3.00
